createdAt,value
2023-05-15T00:00:40.414Z,5.13
2023-05-15T00:05:42.873Z,5.18
2023-05-15T00:10:57.452Z,5.77
2023-05-15T00:16:03.138Z,5.77
2023-05-15T00:21:05.556Z,4.72
2023-05-15T00:26:08.092Z,4.03
2023-05-15T00:31:12.572Z,3.90
2023-05-15T00:36:15.191Z,3.88
2023-05-15T00:41:18.736Z,3.70
2023-05-15T00:46:23.014Z,4.50
2023-05-15T00:51:27.049Z,5.00
2023-05-15T00:56:31.977Z,4.75
2023-05-15T01:01:35.192Z,4.13
2023-05-15T01:06:38.392Z,4.55
2023-05-15T01:11:42.680Z,4.97
2023-05-15T01:16:46.392Z,6.10
2023-05-15T01:21:58.085Z,5.47
2023-05-15T01:27:27.390Z,6.13
2023-05-15T01:32:47.908Z,6.07
2023-05-15T01:38:13.088Z,6.70
2023-05-15T01:43:21.998Z,6.22
2023-05-15T01:48:27.581Z,6.87
2023-05-15T01:53:34.313Z,6.28
2023-05-15T01:58:39.805Z,5.70
2023-05-15T02:03:44.046Z,6.57
2023-05-15T02:08:48.233Z,6.70
2023-05-15T02:13:51.729Z,6.57
2023-05-15T02:18:55.081Z,5.70
2023-05-15T02:23:57.631Z,6.90
2023-05-15T02:29:27.358Z,6.10
2023-05-15T02:34:48.455Z,3.63
2023-05-15T02:39:54.595Z,7.47
2023-05-15T02:44:58.174Z,5.13
2023-05-15T02:50:01.435Z,10.03
2023-05-15T02:55:04.306Z,8.47
2023-05-15T03:00:09.207Z,8.90
2023-05-15T03:05:12.669Z,6.73
2023-05-15T03:10:15.441Z,8.33
2023-05-15T03:15:18.432Z,6.72
2023-05-15T03:20:21.130Z,6.10
2023-05-15T03:25:24.609Z,6.47
2023-05-15T03:30:27.103Z,7.23
2023-05-15T03:35:30.516Z,9.10
2023-05-15T03:40:33.002Z,6.00
2023-05-15T03:45:36.122Z,8.63
2023-05-15T03:50:39.431Z,7.40
2023-05-15T03:55:41.948Z,8.50
2023-05-15T04:00:44.427Z,8.55
2023-05-15T04:05:50.016Z,9.00
2023-05-15T04:10:52.505Z,8.63
2023-05-15T04:15:55.209Z,8.87
2023-05-15T04:20:57.686Z,9.30
2023-05-15T04:26:00.174Z,10.10
2023-05-15T04:31:02.790Z,9.00
2023-05-15T04:36:06.911Z,10.40
2023-05-15T04:41:09.340Z,10.00
2023-05-15T04:46:11.845Z,9.77
2023-05-15T04:51:14.346Z,10.07
2023-05-15T04:56:16.794Z,9.90
2023-05-15T05:01:19.265Z,7.50
2023-05-15T05:06:23.445Z,9.13
2023-05-15T05:11:26.050Z,10.37
2023-05-15T05:16:28.630Z,9.60
2023-05-15T05:21:32.125Z,7.73
2023-05-15T05:26:34.754Z,7.27
2023-05-15T05:31:37.215Z,9.63
2023-05-15T05:36:39.720Z,9.98
2023-05-15T05:41:42.241Z,8.97
2023-05-15T05:46:45.536Z,10.38
2023-05-15T05:51:49.465Z,10.80
2023-05-15T05:56:52.023Z,9.37
2023-05-15T06:01:54.624Z,9.67
2023-05-15T06:06:57.939Z,10.77
2023-05-15T06:12:00.984Z,10.30
2023-05-15T06:17:04.175Z,13.18
2023-05-15T06:22:06.602Z,12.67
2023-05-15T06:27:09.594Z,13.45
2023-05-15T06:32:12.036Z,13.55
2023-05-15T06:37:14.563Z,15.10
2023-05-15T06:42:17.038Z,14.82
2023-05-15T06:47:20.412Z,12.88
2023-05-15T06:52:23.384Z,12.38
2023-05-15T06:57:26.431Z,12.45
2023-05-15T07:02:29.063Z,12.52
2023-05-15T07:07:31.732Z,12.70
2023-05-15T07:12:34.374Z,12.02
2023-05-15T07:17:37.120Z,11.33
2023-05-15T07:22:48.338Z,12.50
2023-05-15T07:27:58.507Z,11.98
2023-05-15T07:33:01.277Z,12.45
2023-05-15T07:38:04.123Z,13.57
2023-05-15T07:43:06.668Z,12.67
2023-05-15T07:48:19.795Z,12.07
2023-05-15T07:53:22.335Z,12.15
2023-05-15T07:58:26.216Z,10.63
2023-05-15T08:03:28.929Z,10.67
2023-05-15T08:08:31.523Z,9.98
2023-05-15T08:13:34.039Z,11.95
2023-05-15T08:18:36.633Z,13.55
2023-05-15T08:23:39.226Z,12.80
2023-05-15T08:28:41.606Z,15.07
2023-05-15T08:33:46.701Z,14.30
2023-05-15T08:38:53.286Z,13.40
2023-05-15T08:43:57.149Z,13.32
2023-05-15T08:49:02.862Z,10.65
2023-05-15T08:54:05.512Z,12.82
2023-05-15T08:59:08.541Z,11.63
2023-05-15T09:04:11.054Z,12.60
2023-05-15T09:09:14.020Z,14.63
2023-05-15T09:14:17.127Z,12.30
2023-05-15T09:19:23.513Z,11.85
2023-05-15T09:24:28.523Z,12.57
2023-05-15T09:35:31.690Z,14.50
2023-05-15T10:08:57.840Z,14.13
2023-05-15T10:14:01.767Z,14.68
2023-05-15T10:19:11.629Z,12.80
2023-05-15T10:24:29.713Z,13.40
2023-05-15T10:29:58.770Z,11.75
2023-05-15T10:35:02.887Z,11.15
2023-05-15T10:40:08.981Z,13.07
2023-05-15T10:45:13.128Z,12.50
2023-05-15T10:50:15.751Z,12.07
2023-05-15T10:55:18.815Z,12.27
2023-05-15T11:00:25.503Z,11.88
2023-05-15T11:05:28.220Z,11.07
2023-05-15T11:10:30.690Z,11.10
2023-05-15T11:15:47.746Z,11.20
2023-05-15T11:20:50.723Z,12.15
2023-05-15T11:25:55.775Z,11.10
2023-05-15T11:31:07.152Z,10.80
2023-05-15T11:36:11.407Z,11.02
2023-05-15T11:41:19.245Z,12.20
2023-05-15T11:46:22.190Z,11.82
2023-05-15T11:51:27.512Z,12.85
2023-05-15T11:56:30.058Z,13.35
2023-05-15T12:01:43.140Z,13.52
2023-05-15T12:06:49.814Z,13.98
2023-05-15T12:11:53.475Z,16.00
2023-05-15T12:17:04.414Z,15.07
2023-05-15T12:22:08.501Z,14.60
2023-05-15T12:27:11.440Z,14.43
2023-05-15T12:32:14.091Z,14.38
2023-05-15T12:37:21.133Z,13.38
2023-05-15T12:42:23.756Z,15.40
2023-05-15T12:47:27.610Z,14.43
2023-05-15T12:52:31.719Z,14.63
2023-05-15T12:57:36.178Z,13.25
2023-05-15T13:02:39.542Z,14.88
2023-05-15T13:07:43.375Z,15.30
2023-05-15T13:12:46.856Z,16.33
2023-05-15T13:17:51.954Z,14.70
2023-05-15T13:22:54.766Z,15.65
2023-05-15T13:28:02.301Z,16.20
2023-05-15T13:33:05.167Z,15.82
2023-05-15T13:38:10.396Z,15.75
2023-05-15T13:43:13.713Z,16.75
2023-05-15T13:48:16.521Z,15.93
2023-05-15T13:53:19.015Z,15.75
2023-05-15T13:58:21.672Z,16.30
2023-05-15T14:03:24.188Z,13.75
2023-05-15T14:08:28.184Z,15.60
2023-05-15T14:13:33.618Z,14.98
2023-05-15T14:18:36.141Z,12.48
2023-05-15T14:23:38.705Z,11.30
2023-05-15T14:28:41.208Z,12.50
2023-05-15T14:33:43.686Z,10.23
2023-05-15T14:38:47.942Z,10.80
2023-05-15T14:43:50.602Z,10.40
2023-05-15T14:48:53.070Z,11.30
2023-05-15T14:53:55.524Z,12.30
2023-05-15T14:58:57.924Z,11.57
2023-05-15T15:04:00.530Z,8.53
2023-05-15T15:09:03.556Z,9.17
2023-05-15T15:14:05.992Z,11.10
2023-05-15T15:19:08.524Z,11.23
2023-05-15T15:24:10.993Z,9.93
2023-05-15T15:29:13.372Z,9.33
2023-05-15T15:34:16.012Z,12.37
2023-05-15T15:39:18.420Z,10.23
2023-05-15T15:44:24.109Z,11.47
2023-05-15T15:49:28.832Z,13.17
2023-05-15T15:54:33.226Z,13.43
2023-05-15T15:59:35.684Z,14.07
2023-05-15T16:04:38.868Z,13.20
2023-05-15T16:09:41.403Z,13.03
2023-05-15T16:14:44.315Z,11.53
2023-05-15T16:19:47.224Z,9.23
2023-05-15T16:24:50.667Z,9.37
2023-05-15T16:29:53.193Z,8.63
2023-05-15T16:34:55.649Z,8.17
2023-05-15T16:39:58.095Z,8.50
2023-05-15T16:45:00.877Z,10.13
2023-05-15T16:50:03.883Z,12.33
2023-05-15T16:55:06.794Z,13.80
2023-05-15T17:00:09.878Z,14.83
2023-05-15T17:05:14.079Z,15.90
2023-05-15T17:10:16.713Z,16.53
2023-05-15T17:15:19.283Z,17.97
2023-05-15T17:20:21.769Z,16.60
2023-05-15T17:25:24.528Z,12.97
2023-05-15T17:30:27.323Z,10.50
2023-05-15T17:35:32.137Z,12.60
2023-05-15T17:40:35.689Z,12.13
2023-05-15T17:45:41.111Z,11.82
2023-05-15T17:50:43.904Z,12.07
2023-05-15T17:55:46.428Z,10.40
2023-05-15T18:00:48.869Z,10.88
2023-05-15T18:05:51.899Z,9.35
2023-05-15T18:10:54.378Z,12.05
2023-05-15T18:15:56.789Z,9.80
2023-05-15T18:20:59.433Z,10.75
2023-05-15T18:26:01.920Z,10.40
2023-05-15T18:31:04.437Z,10.80
2023-05-15T18:36:07.584Z,10.07
2023-05-15T18:41:10.290Z,9.98
2023-05-15T18:46:12.816Z,9.57
2023-05-15T18:51:15.382Z,8.57
2023-05-15T18:56:17.888Z,8.77
2023-05-15T19:01:20.428Z,8.90
2023-05-15T19:06:22.969Z,9.40
2023-05-15T19:11:26.413Z,8.93
2023-05-15T19:16:28.974Z,8.10
2023-05-15T19:21:31.577Z,8.57
2023-05-15T19:26:34.199Z,8.35
2023-05-15T19:31:38.648Z,8.75
2023-05-15T19:36:41.698Z,8.85
2023-05-15T19:41:45.028Z,7.68
2023-05-15T19:46:47.674Z,7.72
2023-05-15T19:51:50.479Z,9.00
2023-05-15T19:56:52.940Z,8.77
2023-05-15T20:01:55.863Z,8.55
2023-05-15T20:06:58.442Z,7.60
2023-05-15T20:12:03.552Z,8.43
2023-05-15T20:17:06.441Z,7.53
2023-05-15T20:22:09.116Z,9.35
2023-05-15T20:27:12.126Z,7.70
2023-05-15T20:32:15.221Z,7.72
2023-05-15T20:37:17.680Z,7.80
2023-05-15T20:42:21.008Z,8.13
2023-05-15T20:47:23.732Z,7.78
2023-05-15T20:52:26.270Z,7.35
2023-05-15T20:57:28.670Z,8.02
2023-05-15T21:02:31.150Z,8.80
2023-05-15T21:07:33.801Z,7.63
2023-05-15T21:12:36.460Z,7.15
2023-05-15T21:17:39.913Z,9.00
2023-05-15T21:22:42.464Z,8.18
2023-05-15T21:27:45.767Z,8.02
2023-05-15T21:32:48.193Z,7.10
2023-05-15T21:37:50.715Z,7.45
2023-05-15T21:42:53.275Z,7.32
2023-05-15T21:47:55.815Z,7.47
2023-05-15T21:52:58.735Z,7.45
2023-05-15T21:58:01.448Z,7.50
2023-05-15T22:03:04.228Z,7.38
2023-05-15T22:08:06.889Z,8.32
2023-05-15T22:13:10.012Z,7.35
2023-05-15T22:18:13.386Z,7.07
2023-05-15T22:23:16.208Z,7.53
2023-05-15T22:28:19.932Z,6.20
2023-05-15T22:33:24.391Z,6.60
2023-05-15T22:38:27.639Z,6.47
2023-05-15T22:43:30.239Z,6.20
2023-05-15T22:48:32.787Z,6.32
2023-05-15T22:53:35.254Z,6.70
2023-05-15T22:58:37.802Z,7.20
2023-05-15T23:03:40.608Z,6.70
2023-05-15T23:08:43.136Z,7.18
2023-05-15T23:13:45.703Z,7.80
2023-05-15T23:18:48.140Z,7.80
2023-05-15T23:23:50.665Z,6.40
2023-05-15T23:28:53.210Z,7.10
2023-05-15T23:33:55.649Z,5.97
2023-05-15T23:38:58.034Z,8.32
2023-05-15T23:44:00.514Z,5.90
2023-05-15T23:49:03.136Z,6.53
2023-05-15T23:54:05.779Z,9.07
2023-05-15T23:59:08.338Z,8.55
